sensor_id;sensor_type;location;lat;lon;timestamp;P1;durP1;ratioP1;P2;durP2;ratioP2
7359;SDS011;3720;48.274;7.796;2023-04-28T00:02:14;8.82;;;4.38;;
7359;SDS011;3720;48.274;7.796;2023-04-28T00:04:47;5.13;;;4.18;;
7359;SDS011;3720;48.274;7.796;2023-04-28T00:07:19;4.07;;;3.15;;
7359;SDS011;3720;48.274;7.796;2023-04-28T00:09:51;6.07;;;3.50;;
7359;SDS011;3720;48.274;7.796;2023-04-28T00:12:24;3.83;;;3.10;;
7359;SDS011;3720;48.274;7.796;2023-04-28T00:14:56;7.05;;;3.40;;
7359;SDS011;3720;48.274;7.796;2023-04-28T00:17:28;4.32;;;3.25;;
7359;SDS011;3720;48.274;7.796;2023-04-28T00:20:00;6.07;;;3.55;;
7359;SDS011;3720;48.274;7.796;2023-04-28T00:22:32;3.80;;;3.10;;
7359;SDS011;3720;48.274;7.796;2023-04-28T00:25:04;4.75;;;3.20;;
7359;SDS011;3720;48.274;7.796;2023-04-28T00:27:38;4.20;;;3.03;;
7359;SDS011;3720;48.274;7.796;2023-04-28T00:30:10;4.15;;;3.00;;
7359;SDS011;3720;48.274;7.796;2023-04-28T00:32:43;5.43;;;3.03;;
7359;SDS011;3720;48.274;7.796;2023-04-28T00:35:14;4.03;;;3.28;;
7359;SDS011;3720;48.274;7.796;2023-04-28T00:37:47;3.78;;;3.05;;
7359;SDS011;3720;48.274;7.796;2023-04-28T00:40:19;4.03;;;3.20;;
7359;SDS011;3720;48.274;7.796;2023-04-28T00:42:52;4.20;;;2.97;;
7359;SDS011;3720;48.274;7.796;2023-04-28T00:45:24;4.75;;;3.30;;
7359;SDS011;3720;48.274;7.796;2023-04-28T00:47:57;5.13;;;3.15;;
7359;SDS011;3720;48.274;7.796;2023-04-28T00:50:30;4.07;;;3.00;;
7359;SDS011;3720;48.274;7.796;2023-04-28T00:53:01;4.15;;;3.25;;
7359;SDS011;3720;48.274;7.796;2023-04-28T00:55:33;4.00;;;3.00;;
7359;SDS011;3720;48.274;7.796;2023-04-28T00:58:07;4.50;;;3.20;;
7359;SDS011;3720;48.274;7.796;2023-04-28T01:00:39;4.25;;;3.00;;
7359;SDS011;3720;48.274;7.796;2023-04-28T01:03:11;4.53;;;3.40;;
7359;SDS011;3720;48.274;7.796;2023-04-28T01:05:44;4.63;;;3.22;;
7359;SDS011;3720;48.274;7.796;2023-04-28T01:08:17;5.40;;;3.28;;
7359;SDS011;3720;48.274;7.796;2023-04-28T01:13:27;5.43;;;3.28;;
7359;SDS011;3720;48.274;7.796;2023-04-28T01:15:59;4.13;;;3.20;;
7359;SDS011;3720;48.274;7.796;2023-04-28T01:18:31;8.38;;;4.50;;
7359;SDS011;3720;48.274;7.796;2023-04-28T01:21:04;8.45;;;4.00;;
7359;SDS011;3720;48.274;7.796;2023-04-28T01:23:36;6.10;;;3.88;;
7359;SDS011;3720;48.274;7.796;2023-04-28T01:26:09;5.45;;;3.67;;
7359;SDS011;3720;48.274;7.796;2023-04-28T01:28:41;5.40;;;3.92;;
7359;SDS011;3720;48.274;7.796;2023-04-28T01:31:13;7.20;;;4.10;;
7359;SDS011;3720;48.274;7.796;2023-04-28T01:33:45;7.80;;;4.13;;
7359;SDS011;3720;48.274;7.796;2023-04-28T01:36:17;5.63;;;3.67;;
7359;SDS011;3720;48.274;7.796;2023-04-28T01:38:51;7.75;;;4.00;;
7359;SDS011;3720;48.274;7.796;2023-04-28T01:41:25;6.40;;;4.10;;
7359;SDS011;3720;48.274;7.796;2023-04-28T01:43:57;6.63;;;4.10;;
7359;SDS011;3720;48.274;7.796;2023-04-28T01:46:29;9.05;;;3.90;;
7359;SDS011;3720;48.274;7.796;2023-04-28T01:49:01;6.85;;;4.30;;
7359;SDS011;3720;48.274;7.796;2023-04-28T01:51:33;6.78;;;4.57;;
7359;SDS011;3720;48.274;7.796;2023-04-28T01:54:04;8.70;;;4.28;;
7359;SDS011;3720;48.274;7.796;2023-04-28T01:56:38;5.85;;;4.25;;
7359;SDS011;3720;48.274;7.796;2023-04-28T01:59:10;8.73;;;4.10;;
7359;SDS011;3720;48.274;7.796;2023-04-28T02:01:42;5.68;;;4.30;;
7359;SDS011;3720;48.274;7.796;2023-04-28T02:04:14;8.25;;;4.00;;
7359;SDS011;3720;48.274;7.796;2023-04-28T02:06:46;5.40;;;3.83;;
7359;SDS011;3720;48.274;7.796;2023-04-28T02:09:18;6.93;;;4.50;;
7359;SDS011;3720;48.274;7.796;2023-04-28T02:11:52;8.77;;;5.38;;
7359;SDS011;3720;48.274;7.796;2023-04-28T02:14:24;10.50;;;6.25;;
7359;SDS011;3720;48.274;7.796;2023-04-28T02:16:56;11.15;;;5.20;;
7359;SDS011;3720;48.274;7.796;2023-04-28T02:19:28;8.50;;;5.03;;
7359;SDS011;3720;48.274;7.796;2023-04-28T02:22:00;6.90;;;4.28;;
7359;SDS011;3720;48.274;7.796;2023-04-28T02:24:33;8.73;;;4.00;;
7359;SDS011;3720;48.274;7.796;2023-04-28T02:27:09;7.63;;;3.95;;
7359;SDS011;3720;48.274;7.796;2023-04-28T02:29:41;7.13;;;3.60;;
7359;SDS011;3720;48.274;7.796;2023-04-28T02:32:13;8.07;;;3.60;;
7359;SDS011;3720;48.274;7.796;2023-04-28T02:34:45;6.90;;;3.83;;
7359;SDS011;3720;48.274;7.796;2023-04-28T02:37:17;5.68;;;3.88;;
7359;SDS011;3720;48.274;7.796;2023-04-28T02:39:49;6.70;;;3.90;;
7359;SDS011;3720;48.274;7.796;2023-04-28T02:42:23;7.22;;;4.13;;
7359;SDS011;3720;48.274;7.796;2023-04-28T02:44:54;5.97;;;4.07;;
7359;SDS011;3720;48.274;7.796;2023-04-28T02:47:26;7.35;;;4.20;;
7359;SDS011;3720;48.274;7.796;2023-04-28T02:49:58;9.35;;;5.07;;
7359;SDS011;3720;48.274;7.796;2023-04-28T02:52:30;7.13;;;4.78;;
7359;SDS011;3720;48.274;7.796;2023-04-28T02:55:02;7.75;;;5.07;;
7359;SDS011;3720;48.274;7.796;2023-04-28T02:57:36;8.35;;;5.05;;
7359;SDS011;3720;48.274;7.796;2023-04-28T03:00:08;9.43;;;4.50;;
7359;SDS011;3720;48.274;7.796;2023-04-28T03:02:40;8.68;;;5.10;;
7359;SDS011;3720;48.274;7.796;2023-04-28T03:05:12;7.07;;;5.15;;
7359;SDS011;3720;48.274;7.796;2023-04-28T03:07:44;7.55;;;4.95;;
7359;SDS011;3720;48.274;7.796;2023-04-28T03:10:17;6.85;;;5.15;;
7359;SDS011;3720;48.274;7.796;2023-04-28T03:12:50;7.20;;;4.80;;
7359;SDS011;3720;48.274;7.796;2023-04-28T03:15:22;9.10;;;5.00;;
7359;SDS011;3720;48.274;7.796;2023-04-28T03:17:54;8.35;;;4.90;;
7359;SDS011;3720;48.274;7.796;2023-04-28T03:20:26;9.13;;;5.20;;
7359;SDS011;3720;48.274;7.796;2023-04-28T03:22:59;8.65;;;5.38;;
7359;SDS011;3720;48.274;7.796;2023-04-28T03:25:31;9.02;;;5.68;;
7359;SDS011;3720;48.274;7.796;2023-04-28T03:28:05;7.10;;;5.20;;
7359;SDS011;3720;48.274;7.796;2023-04-28T03:30:37;7.88;;;5.30;;
7359;SDS011;3720;48.274;7.796;2023-04-28T03:33:09;8.20;;;5.50;;
7359;SDS011;3720;48.274;7.796;2023-04-28T03:35:41;8.70;;;5.38;;
7359;SDS011;3720;48.274;7.796;2023-04-28T03:38:13;9.07;;;5.80;;
7359;SDS011;3720;48.274;7.796;2023-04-28T03:40:45;7.40;;;4.97;;
7359;SDS011;3720;48.274;7.796;2023-04-28T03:43:18;8.02;;;5.15;;
7359;SDS011;3720;48.274;7.796;2023-04-28T03:45:50;7.28;;;5.22;;
7359;SDS011;3720;48.274;7.796;2023-04-28T03:48:22;6.70;;;5.35;;
7359;SDS011;3720;48.274;7.796;2023-04-28T03:50:54;5.97;;;4.90;;
7359;SDS011;3720;48.274;7.796;2023-04-28T03:53:26;8.23;;;5.15;;
7359;SDS011;3720;48.274;7.796;2023-04-28T03:55:58;7.97;;;4.80;;
7359;SDS011;3720;48.274;7.796;2023-04-28T03:58:31;6.10;;;4.53;;
7359;SDS011;3720;48.274;7.796;2023-04-28T04:01:03;7.03;;;4.70;;
7359;SDS011;3720;48.274;7.796;2023-04-28T04:03:35;7.28;;;4.20;;
7359;SDS011;3720;48.274;7.796;2023-04-28T04:06:08;5.93;;;4.03;;
7359;SDS011;3720;48.274;7.796;2023-04-28T04:08:40;7.22;;;3.95;;
7359;SDS011;3720;48.274;7.796;2023-04-28T04:11:13;6.82;;;4.00;;
7359;SDS011;3720;48.274;7.796;2023-04-28T04:13:46;6.05;;;4.30;;
7359;SDS011;3720;48.274;7.796;2023-04-28T04:16:18;5.47;;;3.75;;
7359;SDS011;3720;48.274;7.796;2023-04-28T04:18:51;5.30;;;3.75;;
7359;SDS011;3720;48.274;7.796;2023-04-28T04:21:23;3.80;;;3.25;;
7359;SDS011;3720;48.274;7.796;2023-04-28T04:23:56;4.68;;;3.40;;
7359;SDS011;3720;48.274;7.796;2023-04-28T04:26:28;3.70;;;3.10;;
7359;SDS011;3720;48.274;7.796;2023-04-28T04:29:02;4.28;;;3.28;;
7359;SDS011;3720;48.274;7.796;2023-04-28T04:31:33;5.00;;;3.20;;
7359;SDS011;3720;48.274;7.796;2023-04-28T04:34:05;5.03;;;3.25;;
7359;SDS011;3720;48.274;7.796;2023-04-28T04:36:37;6.60;;;3.05;;
7359;SDS011;3720;48.274;7.796;2023-04-28T04:39:09;4.68;;;3.00;;
7359;SDS011;3720;48.274;7.796;2023-04-28T04:41:42;4.72;;;3.15;;
7359;SDS011;3720;48.274;7.796;2023-04-28T04:44:15;5.40;;;2.97;;
7359;SDS011;3720;48.274;7.796;2023-04-28T04:46:47;4.95;;;3.30;;
7359;SDS011;3720;48.274;7.796;2023-04-28T04:49:19;3.75;;;3.00;;
7359;SDS011;3720;48.274;7.796;2023-04-28T04:51:51;4.90;;;2.90;;
7359;SDS011;3720;48.274;7.796;2023-04-28T04:54:23;4.30;;;3.28;;
7359;SDS011;3720;48.274;7.796;2023-04-28T04:56:55;4.13;;;3.00;;
7359;SDS011;3720;48.274;7.796;2023-04-28T04:59:28;4.95;;;3.58;;
7359;SDS011;3720;48.274;7.796;2023-04-28T05:02:00;5.50;;;3.28;;
7359;SDS011;3720;48.274;7.796;2023-04-28T05:04:32;4.80;;;3.30;;
7359;SDS011;3720;48.274;7.796;2023-04-28T05:07:04;4.93;;;3.20;;
7359;SDS011;3720;48.274;7.796;2023-04-28T05:09:36;4.18;;;3.20;;
7359;SDS011;3720;48.274;7.796;2023-04-28T05:12:08;3.35;;;2.90;;
7359;SDS011;3720;48.274;7.796;2023-04-28T05:14:42;4.55;;;3.30;;
7359;SDS011;3720;48.274;7.796;2023-04-28T05:17:14;5.40;;;3.50;;
7359;SDS011;3720;48.274;7.796;2023-04-28T05:19:46;5.07;;;3.20;;
7359;SDS011;3720;48.274;7.796;2023-04-28T05:22:17;3.65;;;3.20;;
7359;SDS011;3720;48.274;7.796;2023-04-28T05:24:49;4.80;;;3.47;;
7359;SDS011;3720;48.274;7.796;2023-04-28T05:27:21;5.57;;;3.58;;
7359;SDS011;3720;48.274;7.796;2023-04-28T05:29:54;4.60;;;3.60;;
7359;SDS011;3720;48.274;7.796;2023-04-28T05:32:26;4.03;;;3.03;;
7359;SDS011;3720;48.274;7.796;2023-04-28T05:34:58;4.60;;;3.10;;
7359;SDS011;3720;48.274;7.796;2023-04-28T05:37:30;3.20;;;2.90;;
7359;SDS011;3720;48.274;7.796;2023-04-28T05:40:02;3.33;;;2.90;;
7359;SDS011;3720;48.274;7.796;2023-04-28T05:42:34;4.32;;;3.38;;
7359;SDS011;3720;48.274;7.796;2023-04-28T05:45:09;6.03;;;3.15;;
7359;SDS011;3720;48.274;7.796;2023-04-28T05:47:41;4.40;;;3.20;;
7359;SDS011;3720;48.274;7.796;2023-04-28T05:50:13;4.53;;;3.50;;
7359;SDS011;3720;48.274;7.796;2023-04-28T05:52:45;4.97;;;3.47;;
7359;SDS011;3720;48.274;7.796;2023-04-28T05:55:17;4.45;;;3.50;;
7359;SDS011;3720;48.274;7.796;2023-04-28T05:57:49;7.22;;;3.60;;
7359;SDS011;3720;48.274;7.796;2023-04-28T06:00:44;5.70;;;3.90;;
7359;SDS011;3720;48.274;7.796;2023-04-28T06:03:39;5.45;;;3.97;;
7359;SDS011;3720;48.274;7.796;2023-04-28T06:06:36;4.38;;;3.72;;
7359;SDS011;3720;48.274;7.796;2023-04-28T06:13:08;7.10;;;4.40;;
7359;SDS011;3720;48.274;7.796;2023-04-28T06:15:59;6.35;;;4.57;;
7359;SDS011;3720;48.274;7.796;2023-04-28T06:36:47;8.02;;;5.22;;
7359;SDS011;3720;48.274;7.796;2023-04-28T06:39:19;7.90;;;5.10;;
7359;SDS011;3720;48.274;7.796;2023-04-28T06:41:52;7.95;;;5.18;;
7359;SDS011;3720;48.274;7.796;2023-04-28T06:44:24;6.38;;;5.10;;
7359;SDS011;3720;48.274;7.796;2023-04-28T06:46:56;7.93;;;5.30;;
7359;SDS011;3720;48.274;7.796;2023-04-28T06:49:29;9.70;;;5.55;;
7359;SDS011;3720;48.274;7.796;2023-04-28T06:52:01;7.53;;;5.30;;
7359;SDS011;3720;48.274;7.796;2023-04-28T06:54:33;9.98;;;6.03;;
7359;SDS011;3720;48.274;7.796;2023-04-28T06:57:06;7.10;;;5.55;;
7359;SDS011;3720;48.274;7.796;2023-04-28T06:59:38;10.35;;;6.20;;
7359;SDS011;3720;48.274;7.796;2023-04-28T07:02:12;9.93;;;6.10;;
7359;SDS011;3720;48.274;7.796;2023-04-28T07:04:46;10.05;;;6.78;;
7359;SDS011;3720;48.274;7.796;2023-04-28T07:07:18;8.93;;;6.35;;
7359;SDS011;3720;48.274;7.796;2023-04-28T07:09:50;11.30;;;6.85;;
7359;SDS011;3720;48.274;7.796;2023-04-28T07:12:22;11.90;;;7.13;;
7359;SDS011;3720;48.274;7.796;2023-04-28T07:14:54;12.10;;;8.50;;
7359;SDS011;3720;48.274;7.796;2023-04-28T07:17:26;13.90;;;8.00;;
7359;SDS011;3720;48.274;7.796;2023-04-28T07:20:00;8.98;;;6.15;;
7359;SDS011;3720;48.274;7.796;2023-04-28T07:22:33;8.35;;;5.55;;
7359;SDS011;3720;48.274;7.796;2023-04-28T07:25:05;7.80;;;5.55;;
7359;SDS011;3720;48.274;7.796;2023-04-28T07:27:38;6.20;;;4.82;;
7359;SDS011;3720;48.274;7.796;2023-04-28T07:30:10;7.60;;;5.20;;
7359;SDS011;3720;48.274;7.796;2023-04-28T07:32:42;8.10;;;5.45;;
7359;SDS011;3720;48.274;7.796;2023-04-28T07:35:16;8.45;;;5.32;;
7359;SDS011;3720;48.274;7.796;2023-04-28T07:37:48;6.10;;;4.88;;
7359;SDS011;3720;48.274;7.796;2023-04-28T07:40:20;6.47;;;4.55;;
7359;SDS011;3720;48.274;7.796;2023-04-28T07:42:52;6.47;;;4.53;;
7359;SDS011;3720;48.274;7.796;2023-04-28T07:45:24;6.97;;;4.80;;
7359;SDS011;3720;48.274;7.796;2023-04-28T07:47:56;6.55;;;4.78;;
7359;SDS011;3720;48.274;7.796;2023-04-28T07:50:29;6.07;;;5.20;;
7359;SDS011;3720;48.274;7.796;2023-04-28T07:53:01;7.15;;;5.30;;
7359;SDS011;3720;48.274;7.796;2023-04-28T07:55:34;7.50;;;5.43;;
7359;SDS011;3720;48.274;7.796;2023-04-28T07:58:06;8.68;;;5.50;;
7359;SDS011;3720;48.274;7.796;2023-04-28T08:00:38;7.80;;;5.47;;
7359;SDS011;3720;48.274;7.796;2023-04-28T08:03:10;7.30;;;5.60;;
7359;SDS011;3720;48.274;7.796;2023-04-28T08:05:44;8.07;;;5.95;;
7359;SDS011;3720;48.274;7.796;2023-04-28T08:08:16;7.70;;;5.80;;
7359;SDS011;3720;48.274;7.796;2023-04-28T08:10:48;10.45;;;6.15;;
7359;SDS011;3720;48.274;7.796;2023-04-28T08:13:21;11.40;;;5.68;;
7359;SDS011;3720;48.274;7.796;2023-04-28T08:15:53;7.38;;;5.68;;
7359;SDS011;3720;48.274;7.796;2023-04-28T08:18:26;9.13;;;5.78;;
7359;SDS011;3720;48.274;7.796;2023-04-28T08:21:00;7.22;;;5.70;;
7359;SDS011;3720;48.274;7.796;2023-04-28T08:23:32;7.93;;;5.90;;
7359;SDS011;3720;48.274;7.796;2023-04-28T08:26:04;8.52;;;5.95;;
7359;SDS011;3720;48.274;7.796;2023-04-28T08:28:36;8.38;;;5.75;;
7359;SDS011;3720;48.274;7.796;2023-04-28T08:31:08;8.73;;;5.55;;
7359;SDS011;3720;48.274;7.796;2023-04-28T08:33:40;6.60;;;5.40;;
7359;SDS011;3720;48.274;7.796;2023-04-28T08:36:14;8.25;;;5.50;;
7359;SDS011;3720;48.274;7.796;2023-04-28T08:38:47;9.43;;;5.60;;
7359;SDS011;3720;48.274;7.796;2023-04-28T08:41:18;7.13;;;5.63;;
7359;SDS011;3720;48.274;7.796;2023-04-28T08:43:51;8.48;;;5.50;;
7359;SDS011;3720;48.274;7.796;2023-04-28T08:46:23;6.20;;;4.88;;
7359;SDS011;3720;48.274;7.796;2023-04-28T08:48:59;5.95;;;5.10;;
7359;SDS011;3720;48.274;7.796;2023-04-28T08:51:34;6.47;;;5.30;;
7359;SDS011;3720;48.274;7.796;2023-04-28T08:54:09;7.65;;;5.07;;
7359;SDS011;3720;48.274;7.796;2023-04-28T08:56:45;8.10;;;5.10;;
7359;SDS011;3720;48.274;7.796;2023-04-28T08:59:17;8.90;;;5.00;;
7359;SDS011;3720;48.274;7.796;2023-04-28T09:01:51;8.05;;;4.90;;
7359;SDS011;3720;48.274;7.796;2023-04-28T09:04:23;6.20;;;4.82;;
7359;SDS011;3720;48.274;7.796;2023-04-28T09:06:56;7.20;;;5.30;;
7359;SDS011;3720;48.274;7.796;2023-04-28T09:09:28;6.38;;;4.78;;
7359;SDS011;3720;48.274;7.796;2023-04-28T09:12:02;5.82;;;4.82;;
7359;SDS011;3720;48.274;7.796;2023-04-28T09:14:34;7.10;;;4.90;;
7359;SDS011;3720;48.274;7.796;2023-04-28T09:17:10;7.18;;;5.13;;
7359;SDS011;3720;48.274;7.796;2023-04-28T09:19:44;7.50;;;5.35;;
7359;SDS011;3720;48.274;7.796;2023-04-28T09:22:18;7.95;;;5.55;;
7359;SDS011;3720;48.274;7.796;2023-04-28T09:25:09;6.10;;;5.10;;
7359;SDS011;3720;48.274;7.796;2023-04-28T09:27:41;7.70;;;5.18;;
7359;SDS011;3720;48.274;7.796;2023-04-28T09:30:13;7.00;;;5.65;;
7359;SDS011;3720;48.274;7.796;2023-04-28T09:32:49;6.70;;;5.20;;
7359;SDS011;3720;48.274;7.796;2023-04-28T09:35:38;6.00;;;5.25;;
7359;SDS011;3720;48.274;7.796;2023-04-28T09:38:12;7.70;;;5.50;;
7359;SDS011;3720;48.274;7.796;2023-04-28T09:40:48;8.23;;;5.63;;
7359;SDS011;3720;48.274;7.796;2023-04-28T09:43:22;9.35;;;5.70;;
7359;SDS011;3720;48.274;7.796;2023-04-28T09:45:55;8.23;;;6.07;;
7359;SDS011;3720;48.274;7.796;2023-04-28T09:48:30;7.18;;;5.40;;
7359;SDS011;3720;48.274;7.796;2023-04-28T09:51:04;7.32;;;5.97;;
7359;SDS011;3720;48.274;7.796;2023-04-28T09:53:38;7.90;;;6.10;;
7359;SDS011;3720;48.274;7.796;2023-04-28T09:56:10;7.03;;;5.85;;
7359;SDS011;3720;48.274;7.796;2023-04-28T09:58:42;7.65;;;5.85;;
7359;SDS011;3720;48.274;7.796;2023-04-28T10:01:16;7.22;;;5.38;;
7359;SDS011;3720;48.274;7.796;2023-04-28T10:03:48;7.43;;;5.78;;
7359;SDS011;3720;48.274;7.796;2023-04-28T10:06:23;8.30;;;6.00;;
7359;SDS011;3720;48.274;7.796;2023-04-28T10:08:58;6.88;;;6.00;;
7359;SDS011;3720;48.274;7.796;2023-04-28T10:11:31;7.70;;;5.90;;
7359;SDS011;3720;48.274;7.796;2023-04-28T10:14:03;9.45;;;6.35;;
7359;SDS011;3720;48.274;7.796;2023-04-28T10:16:35;8.35;;;6.05;;
7359;SDS011;3720;48.274;7.796;2023-04-28T10:19:08;9.07;;;6.35;;
7359;SDS011;3720;48.274;7.796;2023-04-28T10:21:43;8.45;;;5.90;;
7359;SDS011;3720;48.274;7.796;2023-04-28T10:24:27;9.15;;;5.93;;
7359;SDS011;3720;48.274;7.796;2023-04-28T10:27:04;8.90;;;6.10;;
7359;SDS011;3720;48.274;7.796;2023-04-28T10:29:38;8.38;;;6.10;;
7359;SDS011;3720;48.274;7.796;2023-04-28T10:32:14;8.38;;;6.13;;
7359;SDS011;3720;48.274;7.796;2023-04-28T10:34:51;10.05;;;6.20;;
7359;SDS011;3720;48.274;7.796;2023-04-28T10:40:33;7.57;;;5.90;;
7359;SDS011;3720;48.274;7.796;2023-04-28T10:43:06;9.43;;;6.00;;
7359;SDS011;3720;48.274;7.796;2023-04-28T10:45:57;10.00;;;6.30;;
7359;SDS011;3720;48.274;7.796;2023-04-28T10:51:37;8.70;;;6.20;;
7359;SDS011;3720;48.274;7.796;2023-04-28T10:54:18;6.78;;;5.72;;
7359;SDS011;3720;48.274;7.796;2023-04-28T10:59:51;10.25;;;6.03;;
7359;SDS011;3720;48.274;7.796;2023-04-28T11:02:59;9.73;;;6.00;;
7359;SDS011;3720;48.274;7.796;2023-04-28T11:05:31;6.32;;;5.20;;
7359;SDS011;3720;48.274;7.796;2023-04-28T11:11:17;7.90;;;6.28;;
7359;SDS011;3720;48.274;7.796;2023-04-28T11:13:56;8.75;;;6.22;;
7359;SDS011;3720;48.274;7.796;2023-04-28T11:17:03;7.43;;;6.10;;
7359;SDS011;3720;48.274;7.796;2023-04-28T11:19:36;7.25;;;5.65;;
7359;SDS011;3720;48.274;7.796;2023-04-28T11:22:13;7.68;;;5.60;;
7359;SDS011;3720;48.274;7.796;2023-04-28T11:24:54;6.70;;;5.70;;
7359;SDS011;3720;48.274;7.796;2023-04-28T11:27:27;7.93;;;5.57;;
7359;SDS011;3720;48.274;7.796;2023-04-28T11:30:01;9.50;;;6.40;;
7359;SDS011;3720;48.274;7.796;2023-04-28T11:32:35;8.38;;;5.57;;
7359;SDS011;3720;48.274;7.796;2023-04-28T11:35:09;8.93;;;5.43;;
7359;SDS011;3720;48.274;7.796;2023-04-28T11:37:41;10.02;;;6.05;;
7359;SDS011;3720;48.274;7.796;2023-04-28T11:40:13;9.45;;;5.65;;
7359;SDS011;3720;48.274;7.796;2023-04-28T11:42:46;9.73;;;5.95;;
7359;SDS011;3720;48.274;7.796;2023-04-28T11:45:20;7.00;;;5.45;;
7359;SDS011;3720;48.274;7.796;2023-04-28T11:47:52;7.70;;;6.00;;
7359;SDS011;3720;48.274;7.796;2023-04-28T11:50:34;7.03;;;5.60;;
7359;SDS011;3720;48.274;7.796;2023-04-28T11:53:06;9.38;;;6.00;;
7359;SDS011;3720;48.274;7.796;2023-04-28T11:55:38;8.35;;;5.90;;
7359;SDS011;3720;48.274;7.796;2023-04-28T11:58:16;8.13;;;5.68;;
7359;SDS011;3720;48.274;7.796;2023-04-28T12:03:43;8.60;;;5.38;;
7359;SDS011;3720;48.274;7.796;2023-04-28T12:06:15;7.53;;;5.90;;
7359;SDS011;3720;48.274;7.796;2023-04-28T12:08:48;7.28;;;5.47;;
7359;SDS011;3720;48.274;7.796;2023-04-28T12:11:21;6.65;;;5.68;;
7359;SDS011;3720;48.274;7.796;2023-04-28T12:14:05;7.60;;;5.50;;
7359;SDS011;3720;48.274;7.796;2023-04-28T12:16:42;6.82;;;5.45;;
7359;SDS011;3720;48.274;7.796;2023-04-28T12:19:16;6.38;;;4.88;;
7359;SDS011;3720;48.274;7.796;2023-04-28T12:21:59;6.40;;;4.53;;
7359;SDS011;3720;48.274;7.796;2023-04-28T12:24:32;6.05;;;4.32;;
7359;SDS011;3720;48.274;7.796;2023-04-28T12:29:55;7.53;;;4.38;;
7359;SDS011;3720;48.274;7.796;2023-04-28T12:32:38;4.65;;;4.00;;
7359;SDS011;3720;48.274;7.796;2023-04-28T12:35:12;4.43;;;3.70;;
7359;SDS011;3720;48.274;7.796;2023-04-28T12:37:45;5.32;;;3.65;;
7359;SDS011;3720;48.274;7.796;2023-04-28T12:40:16;4.28;;;3.38;;
7359;SDS011;3720;48.274;7.796;2023-04-28T12:42:49;5.13;;;3.40;;
7359;SDS011;3720;48.274;7.796;2023-04-28T12:45:21;6.03;;;3.40;;
7359;SDS011;3720;48.274;7.796;2023-04-28T12:47:54;4.32;;;3.45;;
7359;SDS011;3720;48.274;7.796;2023-04-28T12:50:27;4.63;;;3.50;;
7359;SDS011;3720;48.274;7.796;2023-04-28T12:53:01;6.38;;;3.30;;
7359;SDS011;3720;48.274;7.796;2023-04-28T12:55:34;8.50;;;3.67;;
7359;SDS011;3720;48.274;7.796;2023-04-28T12:58:05;3.53;;;3.03;;
7359;SDS011;3720;48.274;7.796;2023-04-28T13:00:37;5.18;;;3.42;;
7359;SDS011;3720;48.274;7.796;2023-04-28T13:03:12;4.80;;;3.90;;
7359;SDS011;3720;48.274;7.796;2023-04-28T13:05:44;5.22;;;3.90;;
7359;SDS011;3720;48.274;7.796;2023-04-28T13:08:16;4.88;;;3.88;;
7359;SDS011;3720;48.274;7.796;2023-04-28T13:10:50;4.50;;;3.80;;
7359;SDS011;3720;48.274;7.796;2023-04-28T13:13:22;5.32;;;3.88;;
7359;SDS011;3720;48.274;7.796;2023-04-28T13:15:54;6.25;;;3.60;;
7359;SDS011;3720;48.274;7.796;2023-04-28T13:18:27;5.13;;;3.58;;
7359;SDS011;3720;48.274;7.796;2023-04-28T13:20:59;4.80;;;3.45;;
7359;SDS011;3720;48.274;7.796;2023-04-28T13:23:31;15.00;;;4.97;;
7359;SDS011;3720;48.274;7.796;2023-04-28T13:26:04;5.07;;;3.70;;
7359;SDS011;3720;48.274;7.796;2023-04-28T13:28:36;7.32;;;3.70;;
7359;SDS011;3720;48.274;7.796;2023-04-28T13:31:07;3.55;;;3.10;;
7359;SDS011;3720;48.274;7.796;2023-04-28T13:33:41;5.13;;;3.60;;
7359;SDS011;3720;48.274;7.796;2023-04-28T13:36:12;5.32;;;3.30;;
7359;SDS011;3720;48.274;7.796;2023-04-28T13:38:44;2.78;;;1.58;;
7359;SDS011;3720;48.274;7.796;2023-04-28T13:41:18;2.05;;;1.60;;
7359;SDS011;3720;48.274;7.796;2023-04-28T13:43:50;2.22;;;1.60;;
7359;SDS011;3720;48.274;7.796;2023-04-28T13:46:23;3.95;;;1.92;;
7359;SDS011;3720;48.274;7.796;2023-04-28T13:48:56;2.58;;;1.90;;
7359;SDS011;3720;48.274;7.796;2023-04-28T13:51:28;3.00;;;2.15;;
7359;SDS011;3720;48.274;7.796;2023-04-28T13:54:02;4.20;;;2.10;;
7359;SDS011;3720;48.274;7.796;2023-04-28T13:56:37;4.40;;;2.20;;
7359;SDS011;3720;48.274;7.796;2023-04-28T13:59:09;4.00;;;2.17;;
7359;SDS011;3720;48.274;7.796;2023-04-28T14:01:41;4.03;;;2.15;;
7359;SDS011;3720;48.274;7.796;2023-04-28T14:04:14;3.92;;;2.20;;
7359;SDS011;3720;48.274;7.796;2023-04-28T14:06:46;4.72;;;2.20;;
7359;SDS011;3720;48.274;7.796;2023-04-28T14:09:19;2.08;;;1.60;;
7359;SDS011;3720;48.274;7.796;2023-04-28T14:11:51;4.90;;;1.80;;
7359;SDS011;3720;48.274;7.796;2023-04-28T14:14:25;2.65;;;1.80;;
7359;SDS011;3720;48.274;7.796;2023-04-28T14:16:57;2.20;;;1.35;;
7359;SDS011;3720;48.274;7.796;2023-04-28T14:19:31;3.00;;;1.48;;
7359;SDS011;3720;48.274;7.796;2023-04-28T14:22:03;2.20;;;1.67;;
7359;SDS011;3720;48.274;7.796;2023-04-28T14:24:35;2.10;;;1.90;;
7359;SDS011;3720;48.274;7.796;2023-04-28T14:27:07;3.55;;;1.88;;
7359;SDS011;3720;48.274;7.796;2023-04-28T14:29:40;4.72;;;1.90;;
7359;SDS011;3720;48.274;7.796;2023-04-28T14:32:13;11.10;;;2.80;;
7359;SDS011;3720;48.274;7.796;2023-04-28T14:34:47;6.18;;;2.20;;
7359;SDS011;3720;48.274;7.796;2023-04-28T14:37:18;10.63;;;2.20;;
7359;SDS011;3720;48.274;7.796;2023-04-28T14:39:51;5.00;;;2.17;;
7359;SDS011;3720;48.274;7.796;2023-04-28T14:42:26;4.18;;;2.13;;
7359;SDS011;3720;48.274;7.796;2023-04-28T14:45:01;3.33;;;2.10;;
7359;SDS011;3720;48.274;7.796;2023-04-28T14:47:34;2.78;;;1.88;;
7359;SDS011;3720;48.274;7.796;2023-04-28T14:50:09;3.28;;;1.90;;
7359;SDS011;3720;48.274;7.796;2023-04-28T14:52:41;3.10;;;1.60;;
7359;SDS011;3720;48.274;7.796;2023-04-28T14:55:13;4.03;;;2.00;;
7359;SDS011;3720;48.274;7.796;2023-04-28T14:57:45;3.47;;;1.77;;
7359;SDS011;3720;48.274;7.796;2023-04-28T15:00:17;2.85;;;1.85;;
7359;SDS011;3720;48.274;7.796;2023-04-28T15:02:49;2.45;;;1.90;;
7359;SDS011;3720;48.274;7.796;2023-04-28T15:05:23;2.70;;;2.00;;
7359;SDS011;3720;48.274;7.796;2023-04-28T15:07:55;3.55;;;1.75;;
7359;SDS011;3720;48.274;7.796;2023-04-28T15:10:29;6.18;;;2.00;;
7359;SDS011;3720;48.274;7.796;2023-04-28T15:13:07;2.22;;;1.98;;
7359;SDS011;3720;48.274;7.796;2023-04-28T15:15:40;3.40;;;1.60;;
7359;SDS011;3720;48.274;7.796;2023-04-28T15:18:12;2.15;;;1.10;;
7359;SDS011;3720;48.274;7.796;2023-04-28T15:20:46;3.03;;;1.48;;
7359;SDS011;3720;48.274;7.796;2023-04-28T15:23:18;1.80;;;1.30;;
7359;SDS011;3720;48.274;7.796;2023-04-28T15:25:50;5.60;;;1.70;;
7359;SDS011;3720;48.274;7.796;2023-04-28T15:28:23;3.95;;;1.52;;
7359;SDS011;3720;48.274;7.796;2023-04-28T15:30:55;3.25;;;1.60;;
7359;SDS011;3720;48.274;7.796;2023-04-28T15:33:27;3.42;;;1.60;;
7359;SDS011;3720;48.274;7.796;2023-04-28T15:36:00;5.65;;;1.77;;
7359;SDS011;3720;48.274;7.796;2023-04-28T15:38:32;5.82;;;1.70;;
7359;SDS011;3720;48.274;7.796;2023-04-28T15:41:04;2.47;;;1.30;;
7359;SDS011;3720;48.274;7.796;2023-04-28T15:43:35;3.92;;;1.30;;
7359;SDS011;3720;48.274;7.796;2023-04-28T15:46:08;3.42;;;1.55;;
7359;SDS011;3720;48.274;7.796;2023-04-28T15:48:40;3.65;;;1.30;;
7359;SDS011;3720;48.274;7.796;2023-04-28T15:51:14;1.58;;;1.00;;
7359;SDS011;3720;48.274;7.796;2023-04-28T15:53:46;2.25;;;1.25;;
7359;SDS011;3720;48.274;7.796;2023-04-28T15:56:19;1.60;;;1.20;;
7359;SDS011;3720;48.274;7.796;2023-04-28T15:58:52;1.92;;;1.20;;
7359;SDS011;3720;48.274;7.796;2023-04-28T16:01:24;1.38;;;1.00;;
7359;SDS011;3720;48.274;7.796;2023-04-28T16:03:55;2.20;;;1.20;;
7359;SDS011;3720;48.274;7.796;2023-04-28T16:06:29;1.55;;;1.10;;
7359;SDS011;3720;48.274;7.796;2023-04-28T16:09:01;2.75;;;1.80;;
7359;SDS011;3720;48.274;7.796;2023-04-28T16:11:34;3.83;;;1.30;;
7359;SDS011;3720;48.274;7.796;2023-04-28T16:14:07;2.55;;;1.35;;
7359;SDS011;3720;48.274;7.796;2023-04-28T16:16:39;3.22;;;1.33;;
7359;SDS011;3720;48.274;7.796;2023-04-28T16:19:11;3.70;;;1.48;;
7359;SDS011;3720;48.274;7.796;2023-04-28T16:21:46;2.05;;;1.42;;
7359;SDS011;3720;48.274;7.796;2023-04-28T16:24:18;3.05;;;1.30;;
7359;SDS011;3720;48.274;7.796;2023-04-28T16:26:51;2.80;;;1.30;;
7359;SDS011;3720;48.274;7.796;2023-04-28T16:29:23;1.83;;;1.42;;
7359;SDS011;3720;48.274;7.796;2023-04-28T16:31:55;6.10;;;1.58;;
7359;SDS011;3720;48.274;7.796;2023-04-28T16:34:27;1.85;;;1.50;;
7359;SDS011;3720;48.274;7.796;2023-04-28T16:37:01;1.88;;;1.50;;